createdAt,value
2022-08-18T00:00:35.723Z,13.00
2022-08-18T00:02:39.934Z,13.25
2022-08-18T00:04:48.961Z,12.95
2022-08-18T00:06:52.797Z,13.75
2022-08-18T00:08:56.166Z,12.63
2022-08-18T00:10:59.909Z,12.95
2022-08-18T00:13:05.441Z,13.13
2022-08-18T00:15:12.513Z,13.38
2022-08-18T00:17:16.669Z,13.18
2022-08-18T00:19:19.816Z,13.38
2022-08-18T00:21:22.893Z,13.05
2022-08-18T00:23:25.902Z,12.88
2022-08-18T00:25:29.007Z,12.45
2022-08-18T00:27:32.397Z,13.15
2022-08-18T00:29:37.981Z,12.93
2022-08-18T00:31:41.033Z,12.30
2022-08-18T00:33:44.258Z,13.65
2022-08-18T00:35:47.256Z,12.07
2022-08-18T00:37:50.471Z,13.43
2022-08-18T00:39:54.398Z,12.40
2022-08-18T00:41:57.447Z,12.98
2022-08-18T00:44:00.846Z,12.93
2022-08-18T00:46:07.273Z,12.82
2022-08-18T00:48:12.099Z,12.45
2022-08-18T00:50:18.405Z,12.07
2022-08-18T00:52:23.161Z,12.38
2022-08-18T00:54:30.422Z,12.85
2022-08-18T00:56:38.201Z,12.77
2022-08-18T00:58:45.735Z,11.70
2022-08-18T01:00:50.185Z,13.07
2022-08-18T01:03:01.346Z,11.90
2022-08-18T01:05:10.839Z,12.75
2022-08-18T01:07:18.287Z,12.63
2022-08-18T01:09:21.471Z,13.30
2022-08-18T01:11:24.727Z,12.68
2022-08-18T01:13:29.946Z,11.85
2022-08-18T01:15:33.307Z,12.93
2022-08-18T01:17:36.328Z,12.70
2022-08-18T01:19:42.207Z,11.70
2022-08-18T01:21:51.017Z,11.70
2022-08-18T01:23:57.547Z,12.13
2022-08-18T01:26:00.733Z,11.70
2022-08-18T01:28:04.773Z,12.27
2022-08-18T01:30:10.507Z,12.27
2022-08-18T01:32:15.957Z,11.95
2022-08-18T01:34:18.944Z,12.50
2022-08-18T01:36:22.651Z,11.85
2022-08-18T01:38:25.875Z,12.13
2022-08-18T01:41:11.213Z,12.38
2022-08-18T01:42:54.476Z,12.10
2022-08-18T01:44:57.534Z,13.18
2022-08-18T01:47:00.549Z,11.80
2022-08-18T01:49:04.688Z,11.93
2022-08-18T01:51:10.049Z,12.18
2022-08-18T01:53:12.955Z,12.98
2022-08-18T01:55:16.085Z,12.75
2022-08-18T01:57:22.272Z,12.20
2022-08-18T01:59:25.633Z,12.15
2022-08-18T02:01:36.282Z,12.10
2022-08-18T02:03:44.124Z,12.23
2022-08-18T02:05:50.549Z,11.95
2022-08-18T02:07:54.257Z,12.27
2022-08-18T02:09:58.198Z,12.07
2022-08-18T02:12:02.553Z,11.98
2022-08-18T02:14:08.447Z,11.63
2022-08-18T02:16:11.480Z,12.82
2022-08-18T02:18:25.696Z,12.00
2022-08-18T02:20:39.828Z,12.70
2022-08-18T02:22:44.983Z,12.38
2022-08-18T02:24:48.651Z,12.50
2022-08-18T02:26:51.695Z,12.68
2022-08-18T02:28:54.768Z,12.50
2022-08-18T02:31:05.231Z,12.50
2022-08-18T02:33:10.649Z,12.43
2022-08-18T02:35:17.309Z,12.98
2022-08-18T02:37:20.398Z,12.20
2022-08-18T02:39:23.479Z,11.63
2022-08-18T02:41:26.725Z,12.25
2022-08-18T02:43:37.633Z,11.60
2022-08-18T02:45:40.865Z,12.23
2022-08-18T02:47:51.672Z,12.35
2022-08-18T02:49:54.887Z,12.48
2022-08-18T02:51:58.348Z,11.90
2022-08-18T02:54:01.398Z,11.35
2022-08-18T02:56:10.021Z,11.65
2022-08-18T02:58:13.153Z,12.00
2022-08-18T03:00:19.038Z,11.82
2022-08-18T03:02:22.798Z,11.40
2022-08-18T03:06:45.355Z,11.02
2022-08-18T03:08:48.981Z,11.30
2022-08-18T03:10:52.660Z,11.95
2022-08-18T03:12:55.760Z,11.43
2022-08-18T03:14:59.096Z,12.23
2022-08-18T03:17:05.092Z,11.65
2022-08-18T03:19:08.259Z,12.68
2022-08-18T03:21:17.189Z,12.70
2022-08-18T03:23:20.539Z,12.63
2022-08-18T03:25:32.621Z,11.90
2022-08-18T03:27:36.089Z,12.77
2022-08-18T03:29:39.059Z,11.85
2022-08-18T03:31:44.360Z,12.38
2022-08-18T03:33:48.126Z,12.65
2022-08-18T03:35:51.226Z,12.30
2022-08-18T03:37:58.857Z,12.48
2022-08-18T03:40:02.246Z,12.88
2022-08-18T03:42:05.671Z,12.52
2022-08-18T03:44:08.745Z,12.10
2022-08-18T03:46:13.906Z,12.60
2022-08-18T03:48:16.977Z,12.65
2022-08-18T03:50:20.039Z,11.77
2022-08-18T03:52:23.007Z,13.05
2022-08-18T03:54:29.724Z,12.35
2022-08-18T03:56:36.013Z,11.90
2022-08-18T03:58:39.042Z,12.65
2022-08-18T04:00:42.499Z,13.15
2022-08-18T04:02:45.569Z,12.43
2022-08-18T04:04:49.099Z,14.15
2022-08-18T04:06:58.608Z,13.93
2022-08-18T04:09:04.423Z,13.32
2022-08-18T04:11:10.042Z,16.35
2022-08-18T04:13:13.156Z,15.63
2022-08-18T04:15:17.111Z,16.05
2022-08-18T04:17:21.557Z,15.70
2022-08-18T04:19:27.396Z,16.35
2022-08-18T04:21:32.615Z,16.15
2022-08-18T04:23:39.339Z,15.57
2022-08-18T04:25:55.076Z,15.18
2022-08-18T04:28:01.764Z,15.88
2022-08-18T04:30:05.893Z,15.80
2022-08-18T04:32:09.083Z,15.52
2022-08-18T04:34:12.326Z,15.05
2022-08-18T04:36:20.628Z,14.90
2022-08-18T04:38:24.311Z,14.57
2022-08-18T04:40:27.456Z,14.10
2022-08-18T04:42:30.485Z,15.23
2022-08-18T04:44:36.325Z,15.13
2022-08-18T04:46:41.901Z,14.68
2022-08-18T04:48:44.934Z,16.00
2022-08-18T04:50:49.873Z,15.90
2022-08-18T04:52:52.884Z,15.27
2022-08-18T04:54:55.876Z,14.45
2022-08-18T04:56:58.896Z,15.23
2022-08-18T04:59:04.594Z,15.05
2022-08-18T05:01:11.810Z,14.85
2022-08-18T05:03:14.896Z,15.43
2022-08-18T05:05:18.017Z,15.30
2022-08-18T05:07:22.213Z,15.55
2022-08-18T05:09:25.273Z,15.57
2022-08-18T05:11:32.425Z,15.70
2022-08-18T05:13:35.602Z,16.60
2022-08-18T05:16:07.071Z,15.98
2022-08-18T05:18:04.342Z,15.75
2022-08-18T05:20:10.476Z,15.32
2022-08-18T05:22:14.565Z,15.30
2022-08-18T05:24:19.546Z,15.02
2022-08-18T05:26:22.661Z,15.35
2022-08-18T05:28:26.157Z,15.63
2022-08-18T05:30:29.195Z,16.13
2022-08-18T05:32:48.330Z,15.73
2022-08-18T05:34:55.179Z,14.00
2022-08-18T05:37:08.551Z,14.10
2022-08-18T05:39:19.607Z,14.20
2022-08-18T05:41:26.427Z,13.90
2022-08-18T05:43:29.621Z,13.43
2022-08-18T05:45:32.658Z,13.73
2022-08-18T05:47:35.673Z,13.60
2022-08-18T05:49:39.640Z,13.45
2022-08-18T05:51:47.743Z,12.88
2022-08-18T05:53:51.670Z,14.20
2022-08-18T05:56:02.607Z,13.30
2022-08-18T05:58:10.758Z,12.60
2022-08-18T06:00:14.698Z,13.25
2022-08-18T06:02:28.299Z,12.32
2022-08-18T06:04:41.365Z,12.38
2022-08-18T06:06:48.000Z,12.18
2022-08-18T06:08:57.333Z,11.55
2022-08-18T06:11:00.354Z,11.20
2022-08-18T06:13:04.244Z,10.75
2022-08-18T06:15:13.810Z,10.52
2022-08-18T06:17:37.105Z,9.75
2022-08-18T06:19:51.194Z,10.27
2022-08-18T06:22:02.745Z,9.85
2022-08-18T06:24:14.508Z,10.15
2022-08-18T06:26:21.724Z,10.02
2022-08-18T06:28:26.706Z,10.23
2022-08-18T06:30:42.193Z,9.75
2022-08-18T06:33:08.299Z,9.27
2022-08-18T06:35:17.770Z,9.00
2022-08-18T06:37:30.855Z,9.55
2022-08-18T06:39:42.052Z,9.38
2022-08-18T06:41:47.063Z,9.57
2022-08-18T06:43:59.558Z,9.50
2022-08-18T06:46:07.125Z,8.95
2022-08-18T06:48:17.843Z,8.85
2022-08-18T06:50:26.487Z,8.52
2022-08-18T06:52:34.534Z,8.52
2022-08-18T06:54:47.794Z,8.77
2022-08-18T06:56:55.604Z,8.02
2022-08-18T06:59:22.289Z,7.82
2022-08-18T07:01:25.564Z,7.75
2022-08-18T07:03:44.358Z,7.65
2022-08-18T07:06:00.923Z,8.32
2022-08-18T07:08:12.944Z,7.88
2022-08-18T07:10:32.255Z,8.35
2022-08-18T07:12:35.280Z,7.68
2022-08-18T07:14:46.954Z,7.80
2022-08-18T07:16:59.340Z,8.10
2022-08-18T07:19:07.713Z,7.55
2022-08-18T07:21:24.999Z,7.07
2022-08-18T07:23:33.573Z,6.90
2022-08-18T07:25:41.016Z,7.82
2022-08-18T07:30:01.222Z,7.15
2022-08-18T07:32:15.810Z,7.10
2022-08-18T07:34:28.813Z,7.25
2022-08-18T07:36:36.037Z,6.75
2022-08-18T07:38:46.329Z,6.80
2022-08-18T07:40:54.982Z,6.80
2022-08-18T07:43:03.258Z,6.50
2022-08-18T07:45:15.048Z,6.90
2022-08-18T07:47:25.667Z,6.65
2022-08-18T07:49:35.309Z,6.82
2022-08-18T07:51:46.451Z,7.35
2022-08-18T07:53:59.670Z,7.72
2022-08-18T07:56:06.044Z,6.80
2022-08-18T07:58:22.611Z,7.05
2022-08-18T08:00:57.514Z,6.85
2022-08-18T08:05:12.184Z,6.38
2022-08-18T08:07:26.003Z,7.00
2022-08-18T08:09:41.694Z,6.40
2022-08-18T08:11:59.590Z,6.05
2022-08-18T08:14:16.584Z,6.65
2022-08-18T08:16:26.142Z,6.70
2022-08-18T08:18:37.464Z,6.43
2022-08-18T08:20:47.400Z,6.38
2022-08-18T08:23:01.395Z,6.18
2022-08-18T08:25:42.736Z,6.75
2022-08-18T08:27:53.846Z,6.28
2022-08-18T08:30:04.035Z,6.68
2022-08-18T08:32:12.184Z,6.35
2022-08-18T08:34:20.477Z,6.72
2022-08-18T08:36:27.664Z,6.90
2022-08-18T08:38:42.881Z,6.53
2022-08-18T08:40:56.840Z,6.18
2022-08-18T08:43:04.730Z,6.70
2022-08-18T08:45:13.512Z,6.68
2022-08-18T08:47:23.073Z,6.88
2022-08-18T08:49:32.644Z,6.65
2022-08-18T08:51:41.756Z,6.90
2022-08-18T08:53:49.292Z,6.22
2022-08-18T08:56:02.042Z,6.40
2022-08-18T08:58:18.678Z,6.03
2022-08-18T09:00:22.267Z,5.75
2022-08-18T09:02:52.534Z,5.65
2022-08-18T09:05:08.793Z,4.80
2022-08-18T09:07:30.438Z,5.53
2022-08-18T09:09:58.184Z,5.60
2022-08-18T09:12:26.785Z,5.80
2022-08-18T09:15:14.958Z,5.05
2022-08-18T09:17:41.055Z,6.15
2022-08-18T09:19:59.888Z,5.53
2022-08-18T09:22:13.390Z,5.47
2022-08-18T09:24:23.974Z,5.63
2022-08-18T09:26:40.465Z,5.53
2022-08-18T09:28:56.285Z,5.45
2022-08-18T09:31:19.617Z,5.35
2022-08-18T09:33:37.621Z,6.50
2022-08-18T09:35:59.237Z,5.55
2022-08-18T09:38:11.834Z,4.93
2022-08-18T09:40:17.806Z,5.43
2022-08-18T09:42:33.022Z,5.55
2022-08-18T09:45:08.664Z,5.20
2022-08-18T09:47:49.189Z,6.13
2022-08-18T09:49:53.246Z,5.72
2022-08-18T09:51:58.143Z,6.10
2022-08-18T09:54:21.341Z,6.32
2022-08-18T09:56:55.561Z,6.40
2022-08-18T09:58:59.887Z,5.45
2022-08-18T10:01:32.929Z,5.43
2022-08-18T10:03:39.050Z,5.57
2022-08-18T10:05:57.282Z,6.20
2022-08-18T10:08:44.267Z,5.90
2022-08-18T10:11:01.371Z,5.95
2022-08-18T10:16:10.734Z,5.32
2022-08-18T10:18:45.371Z,5.40
2022-08-18T10:20:59.292Z,5.28
2022-08-18T10:23:02.411Z,6.07
2022-08-18T10:25:22.477Z,5.00
2022-08-18T10:27:49.152Z,5.72
2022-08-18T10:29:54.758Z,6.18
2022-08-18T10:32:23.455Z,6.15
2022-08-18T10:34:39.759Z,6.72
2022-08-18T10:36:51.544Z,6.88
2022-08-18T10:38:55.347Z,7.13
2022-08-18T10:41:09.423Z,6.70
2022-08-18T10:43:45.223Z,7.03
2022-08-18T10:45:59.472Z,6.35
2022-08-18T10:50:42.242Z,7.00
2022-08-18T10:53:40.420Z,7.47
2022-08-18T10:55:50.176Z,7.13
2022-08-18T10:58:18.072Z,7.00
2022-08-18T11:00:22.494Z,7.07
2022-08-18T11:03:01.923Z,6.45
2022-08-18T11:05:07.033Z,6.68
2022-08-18T11:07:13.147Z,7.10
2022-08-18T11:09:25.422Z,7.57
2022-08-18T11:11:39.526Z,6.97
2022-08-18T11:13:54.389Z,6.95
2022-08-18T11:16:10.339Z,7.10
2022-08-18T11:18:31.617Z,7.95
2022-08-18T11:20:34.618Z,7.53
2022-08-18T11:22:38.928Z,8.00
2022-08-18T11:24:46.646Z,7.15
2022-08-18T11:29:24.245Z,7.40
2022-08-18T11:31:27.423Z,6.80
2022-08-18T11:33:33.483Z,7.60
2022-08-18T11:35:47.629Z,7.28
2022-08-18T11:37:55.554Z,7.05
2022-08-18T11:40:05.738Z,7.18
2022-08-18T11:42:21.934Z,7.22
2022-08-18T11:44:31.922Z,6.80
2022-08-18T11:46:38.451Z,7.10
2022-08-18T11:51:23.413Z,6.97
2022-08-18T11:53:38.495Z,6.88
2022-08-18T11:55:44.415Z,6.70
2022-08-18T11:57:59.033Z,6.47
2022-08-18T12:00:50.691Z,7.15
2022-08-18T12:03:01.940Z,6.32
2022-08-18T12:07:30.902Z,7.03
2022-08-18T12:10:15.905Z,6.22
2022-08-18T12:12:07.361Z,6.95
2022-08-18T12:16:46.507Z,6.82
2022-08-18T12:18:49.684Z,7.50
2022-08-18T12:20:57.443Z,6.75
2022-08-18T12:23:00.612Z,7.70
2022-08-18T12:25:12.127Z,7.18
2022-08-18T12:27:22.393Z,6.90
2022-08-18T12:29:33.103Z,7.15
2022-08-18T12:31:48.629Z,7.05
2022-08-18T12:34:00.814Z,7.20
2022-08-18T12:36:05.771Z,7.45
2022-08-18T12:38:12.905Z,7.70
2022-08-18T12:40:17.306Z,7.07
2022-08-18T12:42:23.185Z,7.70
2022-08-18T12:44:27.174Z,7.50
2022-08-18T12:46:31.332Z,7.22
2022-08-18T12:48:35.870Z,7.22
2022-08-18T12:50:49.725Z,7.13
2022-08-18T12:52:57.355Z,8.20
2022-08-18T12:55:00.530Z,7.40
2022-08-18T12:57:06.665Z,7.10
2022-08-18T12:59:12.478Z,6.95
2022-08-18T13:01:17.662Z,6.85
2022-08-18T13:03:20.812Z,7.05
2022-08-18T13:05:27.817Z,7.05
2022-08-18T13:07:33.075Z,6.05
2022-08-18T13:09:52.937Z,6.57
2022-08-18T13:11:57.319Z,6.97
2022-08-18T13:14:03.278Z,6.82
2022-08-18T13:16:16.330Z,7.00
2022-08-18T13:18:34.038Z,7.10
2022-08-18T13:20:38.606Z,6.72
2022-08-18T13:22:48.096Z,6.90
2022-08-18T13:24:53.234Z,6.22
2022-08-18T13:26:56.301Z,6.63
2022-08-18T13:28:59.922Z,7.07
2022-08-18T13:31:03.526Z,6.50
2022-08-18T13:33:34.810Z,6.95
2022-08-18T13:35:35.208Z,6.13
2022-08-18T13:37:41.586Z,6.22
2022-08-18T13:39:44.646Z,6.57
2022-08-18T13:41:52.767Z,7.00
2022-08-18T13:43:55.897Z,6.63
2022-08-18T13:45:58.991Z,6.40
2022-08-18T13:48:02.168Z,6.90
2022-08-18T13:50:10.051Z,6.65
2022-08-18T13:52:33.051Z,7.30
2022-08-18T13:54:37.551Z,6.35
2022-08-18T13:56:41.510Z,7.10
2022-08-18T13:58:54.410Z,6.43
2022-08-18T14:03:38.520Z,6.13
2022-08-18T14:05:51.521Z,6.30
2022-08-18T14:10:03.808Z,6.82
2022-08-18T14:12:23.233Z,6.47
2022-08-18T14:14:27.770Z,6.15
2022-08-18T14:16:31.002Z,6.53
2022-08-18T14:18:34.075Z,6.45
2022-08-18T14:20:37.262Z,5.82
2022-08-18T14:22:43.659Z,6.25
2022-08-18T14:24:48.704Z,6.28
2022-08-18T14:26:52.129Z,6.32
2022-08-18T14:28:55.876Z,6.50
2022-08-18T14:31:01.061Z,5.95
2022-08-18T14:33:06.383Z,5.82
2022-08-18T14:35:33.866Z,6.13
2022-08-18T14:37:38.439Z,6.22
2022-08-18T14:39:48.069Z,6.20
2022-08-18T14:41:55.963Z,6.57
2022-08-18T14:44:13.368Z,6.78
2022-08-18T14:48:21.669Z,6.50
2022-08-18T14:50:25.935Z,6.85
2022-08-18T14:52:28.894Z,7.10
2022-08-18T14:54:33.608Z,6.13
2022-08-18T14:56:39.344Z,7.15
2022-08-18T14:58:42.590Z,6.93
2022-08-18T15:00:49.827Z,7.53
2022-08-18T15:02:57.076Z,7.32
2022-08-18T15:05:19.592Z,8.00
2022-08-18T15:07:26.425Z,8.77
2022-08-18T15:09:30.088Z,7.65
2022-08-18T15:11:33.289Z,7.90
2022-08-18T15:13:42.293Z,7.60
2022-08-18T15:15:51.708Z,7.68
2022-08-18T15:17:55.218Z,8.10
2022-08-18T15:20:01.656Z,7.95
2022-08-18T15:22:05.032Z,7.63
2022-08-18T15:24:15.005Z,8.45
2022-08-18T15:26:25.367Z,7.70
2022-08-18T15:28:28.905Z,8.77
2022-08-18T15:30:34.587Z,8.00
2022-08-18T15:32:38.023Z,8.15
2022-08-18T15:34:46.863Z,8.20
2022-08-18T15:36:54.024Z,7.65
2022-08-18T15:38:57.357Z,7.55
2022-08-18T15:41:06.142Z,7.38
2022-08-18T15:43:15.408Z,7.40
2022-08-18T15:45:26.658Z,7.43
2022-08-18T15:47:34.424Z,7.80
2022-08-18T15:49:38.321Z,7.88
2022-08-18T15:51:42.046Z,7.28
2022-08-18T15:53:48.339Z,6.93
2022-08-18T15:55:51.799Z,7.30
2022-08-18T15:57:58.153Z,6.82
2022-08-18T16:00:01.778Z,7.43
2022-08-18T16:02:05.575Z,6.90
2022-08-18T16:04:11.641Z,7.00
2022-08-18T16:06:17.039Z,6.47
2022-08-18T16:08:25.616Z,6.90
2022-08-18T16:10:30.770Z,6.95
2022-08-18T16:12:33.803Z,7.90
2022-08-18T16:14:38.282Z,6.72
2022-08-18T16:16:41.303Z,7.28
2022-08-18T16:18:44.704Z,7.63
2022-08-18T16:20:52.659Z,7.60
2022-08-18T16:22:56.427Z,7.38
2022-08-18T16:24:59.511Z,7.97
2022-08-18T16:27:02.537Z,7.30
2022-08-18T16:29:05.535Z,7.85
2022-08-18T16:31:09.105Z,7.78
2022-08-18T16:33:12.062Z,7.60
2022-08-18T16:35:15.782Z,7.35
2022-08-18T16:37:21.419Z,7.35
2022-08-18T16:39:24.425Z,8.75
2022-08-18T16:41:28.133Z,7.45
2022-08-18T16:43:31.128Z,8.13
2022-08-18T16:45:36.237Z,7.47
2022-08-18T16:47:39.642Z,7.40
2022-08-18T16:49:42.920Z,8.25
2022-08-18T16:51:45.971Z,7.70
2022-08-18T16:53:51.729Z,8.00
2022-08-18T16:55:54.737Z,8.10
2022-08-18T16:57:57.809Z,8.63
2022-08-18T17:00:02.837Z,7.60
2022-08-18T17:02:05.917Z,7.57
2022-08-18T17:04:13.635Z,8.10
2022-08-18T17:06:23.354Z,7.90
2022-08-18T17:08:26.600Z,8.45
2022-08-18T17:12:55.127Z,7.60
2022-08-18T17:14:58.482Z,8.10
2022-08-18T17:17:01.511Z,8.15
2022-08-18T17:19:06.007Z,8.45
2022-08-18T17:21:12.249Z,8.00
2022-08-18T17:23:15.240Z,9.02
2022-08-18T17:25:24.239Z,9.23
2022-08-18T17:27:37.489Z,9.18
2022-08-18T17:29:46.828Z,8.48
2022-08-18T17:31:53.498Z,8.90
2022-08-18T17:34:04.364Z,7.85
2022-08-18T17:36:14.314Z,8.25
2022-08-18T17:38:26.129Z,9.20
2022-08-18T17:40:33.621Z,8.68
2022-08-18T17:42:40.567Z,8.35
2022-08-18T17:44:52.070Z,8.52
2022-08-18T17:46:57.494Z,7.47
2022-08-18T17:49:03.736Z,9.15
2022-08-18T17:51:10.977Z,8.80
2022-08-18T17:53:15.230Z,8.40
2022-08-18T17:55:24.810Z,8.57
2022-08-18T17:57:31.078Z,8.15
2022-08-18T17:59:51.200Z,8.50
2022-08-18T18:02:18.369Z,8.63
2022-08-18T18:04:32.011Z,8.35
2022-08-18T18:06:38.903Z,8.55
2022-08-18T18:08:54.791Z,8.95
2022-08-18T18:11:10.858Z,8.57
2022-08-18T18:13:22.990Z,8.93
2022-08-18T18:15:32.523Z,8.15
2022-08-18T18:19:39.239Z,9.20
2022-08-18T18:21:58.948Z,8.73
2022-08-18T18:24:15.520Z,8.63
2022-08-18T18:26:29.883Z,9.40
2022-08-18T18:28:35.189Z,9.10
2022-08-18T18:30:41.055Z,9.65
2022-08-18T18:32:59.369Z,8.85
2022-08-18T18:35:15.876Z,9.47
2022-08-18T18:37:25.899Z,9.77
2022-08-18T18:39:32.957Z,9.70
2022-08-18T18:41:39.995Z,11.50
2022-08-18T18:43:44.855Z,9.90
2022-08-18T18:46:26.347Z,9.43
2022-08-18T18:48:48.228Z,9.13
2022-08-18T18:51:11.913Z,10.70
2022-08-18T18:55:27.877Z,10.63
2022-08-18T18:57:44.260Z,10.73
2022-08-18T19:02:33.938Z,10.50
2022-08-18T19:04:43.535Z,11.27
2022-08-18T19:06:51.298Z,11.75
2022-08-18T19:09:02.113Z,12.15
2022-08-18T19:11:15.888Z,11.63
2022-08-18T19:13:32.371Z,12.35
2022-08-18T19:15:39.078Z,12.32
2022-08-18T19:17:51.305Z,12.05
2022-08-18T19:19:59.084Z,11.93
2022-08-18T19:22:08.236Z,12.75
2022-08-18T19:24:17.376Z,12.73
2022-08-18T19:26:24.423Z,12.30
2022-08-18T19:28:33.703Z,12.52
2022-08-18T19:30:43.891Z,12.88
2022-08-18T19:32:51.862Z,12.00
2022-08-18T19:34:56.195Z,13.20
2022-08-18T19:37:05.155Z,12.82
2022-08-18T19:39:16.391Z,12.93
2022-08-18T19:41:31.856Z,13.20
2022-08-18T19:43:45.437Z,13.43
2022-08-18T19:45:58.584Z,13.02
2022-08-18T19:48:13.081Z,14.30
2022-08-18T19:50:25.894Z,13.98
2022-08-18T19:52:46.281Z,13.40
2022-08-18T19:55:01.179Z,13.52
2022-08-18T19:57:28.374Z,14.35
2022-08-18T19:59:53.526Z,13.45
2022-08-18T20:02:17.130Z,13.25
2022-08-18T20:04:35.169Z,13.75
2022-08-18T20:07:04.423Z,13.00
2022-08-18T20:09:35.841Z,14.07
2022-08-18T20:11:55.367Z,14.02
2022-08-18T20:13:58.726Z,13.45
2022-08-18T20:16:35.479Z,14.93
2022-08-18T20:18:50.044Z,14.15
2022-08-18T20:21:23.049Z,14.70
2022-08-18T20:23:34.549Z,14.95
2022-08-18T20:25:43.430Z,15.68
2022-08-18T20:27:50.805Z,15.90
2022-08-18T20:30:20.663Z,16.25
2022-08-18T20:32:32.262Z,15.65
2022-08-18T20:34:35.864Z,15.52
2022-08-18T20:36:41.457Z,15.98
2022-08-18T20:38:49.196Z,15.68
2022-08-18T20:40:52.392Z,15.80
2022-08-18T20:42:56.279Z,16.88
2022-08-18T20:45:12.834Z,18.50
2022-08-18T20:47:41.634Z,18.90
2022-08-18T20:49:53.916Z,18.45
2022-08-18T20:52:04.251Z,17.33
2022-08-18T20:54:24.825Z,16.88
2022-08-18T20:56:43.404Z,16.27
2022-08-18T20:58:54.310Z,16.63
2022-08-18T21:00:58.182Z,18.08
2022-08-18T21:03:07.745Z,20.48
2022-08-18T21:05:10.789Z,18.92
2022-08-18T21:07:36.433Z,19.15
2022-08-18T21:09:50.458Z,18.80
2022-08-18T21:11:53.784Z,18.75
2022-08-18T21:13:58.650Z,22.05
2022-08-18T21:16:07.548Z,20.92
2022-08-18T21:18:18.773Z,20.55
2022-08-18T21:20:23.897Z,19.65
2022-08-18T21:22:28.694Z,18.70
2022-08-18T21:24:35.892Z,18.35
2022-08-18T21:26:41.490Z,18.42
2022-08-18T21:28:48.303Z,17.80
2022-08-18T21:30:56.350Z,17.33
2022-08-18T21:33:19.958Z,18.65
2022-08-18T21:35:29.038Z,20.15
2022-08-18T21:37:33.431Z,19.27
2022-08-18T21:39:48.898Z,18.23
2022-08-18T21:41:57.157Z,18.73
2022-08-18T21:44:05.425Z,18.52
2022-08-18T21:46:09.111Z,18.10
2022-08-18T21:48:16.024Z,17.80
2022-08-18T21:50:22.357Z,19.15
2022-08-18T21:52:27.621Z,18.27
2022-08-18T21:54:34.426Z,19.10
2022-08-18T21:56:37.930Z,19.08
2022-08-18T21:58:44.458Z,19.60
2022-08-18T22:01:08.510Z,19.25
2022-08-18T22:03:17.108Z,18.35
2022-08-18T22:05:28.768Z,19.58
2022-08-18T22:07:51.871Z,18.63
2022-08-18T22:10:01.039Z,18.67
2022-08-18T22:12:25.551Z,19.23
2022-08-18T22:14:54.994Z,18.48
2022-08-18T22:17:26.908Z,20.10
2022-08-18T22:19:29.907Z,21.23
2022-08-18T22:21:37.223Z,20.48
2022-08-18T22:23:44.741Z,19.98
2022-08-18T22:25:47.726Z,19.83
2022-08-18T22:27:50.767Z,18.73
2022-08-18T22:29:58.875Z,19.30
2022-08-18T22:32:02.930Z,19.63
2022-08-18T22:34:09.696Z,19.77
2022-08-18T22:36:19.124Z,19.77
2022-08-18T22:38:22.337Z,19.95
2022-08-18T22:40:26.627Z,20.10
2022-08-18T22:42:32.715Z,21.70
2022-08-18T22:44:35.839Z,20.80
2022-08-18T22:46:41.432Z,21.30
2022-08-18T22:48:44.504Z,19.98
2022-08-18T22:50:47.541Z,19.65
2022-08-18T22:52:50.583Z,20.23
2022-08-18T22:54:53.876Z,21.02
2022-08-18T22:56:57.867Z,22.30
2022-08-18T22:59:00.948Z,20.70
2022-08-18T23:01:16.456Z,20.40
2022-08-18T23:03:22.286Z,21.00
2022-08-18T23:05:25.534Z,20.52
2022-08-18T23:07:29.080Z,20.25
2022-08-18T23:09:33.502Z,21.15
2022-08-18T23:11:36.678Z,20.77
2022-08-18T23:13:39.809Z,19.73
2022-08-18T23:15:42.927Z,19.23
2022-08-18T23:17:46.208Z,18.88
2022-08-18T23:19:52.435Z,19.75
2022-08-18T23:21:55.543Z,19.50
2022-08-18T23:23:58.594Z,19.40
2022-08-18T23:26:01.650Z,19.25
2022-08-18T23:28:04.842Z,20.65
2022-08-18T23:30:09.179Z,21.00
2022-08-18T23:32:12.178Z,21.02
2022-08-18T23:34:16.143Z,20.98
2022-08-18T23:36:21.720Z,21.30
2022-08-18T23:38:31.671Z,20.77
2022-08-18T23:40:36.075Z,21.88
2022-08-18T23:42:39.114Z,21.13
2022-08-18T23:44:42.184Z,21.70
2022-08-18T23:46:45.608Z,19.63
2022-08-18T23:48:49.336Z,19.98
2022-08-18T23:50:52.334Z,19.15
2022-08-18T23:52:59.388Z,20.50
2022-08-18T23:55:04.694Z,19.65
2022-08-18T23:57:07.707Z,20.33
2022-08-18T23:59:11.275Z,19.30
